Time;durP1;ratioP1;P1;durP2;ratioP2;P2;SDS_P1;SDS_P2;PMS_P1;PMS_P2;Temp;Humidity;BMP_temperature;BMP_pressure;BME280_temperature;BME280_humidity;BME280_pressure;Samples;Min_cycle;Max_cycle;Signal;HPM_P1;HPM_P2
2022/09/14 00:07:38;;;;;;;2.70;1.10;;;;;;;;;;20586246;28;20229;-72
2022/09/14 00:17:40;;;;;;;2.07;0.87;;;;;;;;;;20543318;28;20235;-71
2022/09/14 00:27:41;;;;;;;1.63;0.77;;;;;;;;;;20550860;28;20216;-73
2022/09/14 00:37:43;;;;;;;1.60;0.90;;;;;;;;;;20510099;28;20288;-72
2022/09/14 00:47:47;;;;;;;2.57;0.97;;;;;;;;;;20548617;28;20812;-71
2022/09/14 00:57:51;;;;;;;1.87;1.00;;;;;;;;;;20558374;28;20221;-71
2022/09/14 01:08:12;;;;;;;3.43;1.10;;;;;;;;;;20560894;28;20224;-70
2022/09/14 01:18:29;;;;;;;3.33;1.43;;;;;;;;;;20580295;28;20303;-73
2022/09/14 01:28:42;;;;;;;1.53;0.90;;;20.20;99.90;;;;;;20579752;28;20746;-71
2022/09/14 01:38:46;;;;;;;2.47;0.83;;;;;;;;;;20578614;28;20250;-71
2022/09/14 01:49:01;;;;;;;2.23;0.70;;;20.10;99.90;;;;;;20575176;28;20217;-71
2022/09/14 01:59:23;;;;;;;2.63;0.73;;;20.10;99.90;;;;;;20577066;28;20596;-71
2022/09/14 02:09:25;;;;;;;1.23;0.70;;;;;;;;;;20576621;28;20212;-70
2022/09/14 02:19:32;;;;;;;0.97;0.63;;;19.90;99.90;;;;;;20576441;28;20236;-70
2022/09/14 02:29:34;;;;;;;2.13;1.00;;;19.90;99.90;;;;;;20553042;28;20283;-70
2022/09/14 02:39:42;;;;;;;4.10;1.10;;;;;;;;;;20524664;28;20599;-71
2022/09/14 02:49:56;;;;;;;3.60;1.17;;;;;;;;;;20526699;28;20235;-70
2022/09/14 02:59:57;;;;;;;2.30;1.00;;;;;;;;;;20551884;28;20248;-71
2022/09/14 03:09:59;;;;;;;1.90;1.17;;;;;;;;;;20555030;28;20581;-70
2022/09/14 03:20:01;;;;;;;2.60;1.30;;;20.20;99.90;;;;;;20531243;28;20712;-71
2022/09/14 03:30:04;;;;;;;2.33;1.37;;;;;;;;;;20556908;28;20594;-70
2022/09/14 03:40:07;;;;;;;6.07;1.50;;;;;;;;;;20549716;28;20768;-70
2022/09/14 03:50:09;;;;;;;2.83;1.53;;;;;;;;;;20562165;28;20225;-70
2022/09/14 04:00:12;;;;;;;2.63;1.60;;;;;;;;;;20562122;28;20255;-71
2022/09/14 04:10:13;;;;;;;3.17;1.80;;;;;;;;;;20521996;28;20692;-71
2022/09/14 04:20:17;;;;;;;3.13;1.70;;;;;;;;;;20504105;28;20224;-71
2022/09/14 04:30:18;;;;;;;3.50;1.73;;;;;;;;;;20504687;29;20212;-71
2022/09/14 04:40:20;;;;;;;2.97;1.50;;;;;;;;;;20502781;29;20585;-71
2022/09/14 04:50:22;;;;;;;3.17;1.80;;;;;;;;;;20500114;28;20223;-71
2022/09/14 05:00:27;;;;;;;3.17;1.80;;;;;;;;;;20501760;28;20220;-71
2022/09/14 05:10:29;;;;;;;2.20;1.50;;;;;;;;;;20501121;28;20206;-71
2022/09/14 05:20:30;;;;;;;3.90;2.30;;;;;;;;;;20498336;28;20266;-71
2022/09/14 05:30:33;;;;;;;2.90;2.13;;;;;;;;;;20501584;28;20220;-72
2022/09/14 05:40:34;;;;;;;4.43;2.40;;;;;;;;;;20492155;28;20220;-72
2022/09/14 05:50:36;;;;;;;4.60;2.53;;;;;;;;;;20498061;28;20216;-72
2022/09/14 06:00:38;;;;;;;4.80;2.43;;;;;;;;;;20495216;28;20598;-72
2022/09/14 06:10:40;;;;;;;3.57;2.37;;;;;;;;;;20497684;28;20223;-72
2022/09/14 06:20:49;;;;;;;7.03;4.20;;;;;;;;;;20496296;28;20217;-72
2022/09/14 06:30:51;;;;;;;4.13;2.90;;;;;;;;;;20495079;28;20221;-72
2022/09/14 06:40:58;;;;;;;4.83;2.87;;;19.50;99.90;;;;;;20491592;28;20604;-72
2022/09/14 06:51:09;;;;;;;5.13;3.30;;;19.40;99.90;;;;;;20493064;28;20239;-72
2022/09/14 07:01:13;;;;;;;4.43;2.83;;;19.50;99.90;;;;;;20494893;28;20219;-72
2022/09/14 07:11:18;;;;;;;5.03;3.10;;;19.40;99.90;;;;;;20495447;28;20219;-72
2022/09/14 07:21:21;;;;;;;4.00;2.73;;;;;;;;;;20494765;28;20226;-72
2022/09/14 07:31:24;;;;;;;6.40;2.70;;;;;;;;;;20494549;28;20689;-72
2022/09/14 07:41:27;;;;;;;4.23;2.57;;;;;;;;;;20494183;28;20729;-73
2022/09/14 07:51:30;;;;;;;3.77;2.37;;;;;;;;;;20500574;28;20715;-72
2022/09/14 08:01:33;;;;;;;3.30;1.90;;;;;;;;;;20506371;28;20368;-72
2022/09/14 08:11:35;;;;;;;3.30;2.10;;;;;;;;;;20506399;28;20264;-72
2022/09/14 08:21:37;;;;;;;2.43;1.70;;;;;;;;;;20505560;28;20301;-72
2022/09/14 08:31:39;;;;;;;3.37;1.80;;;;;;;;;;20504613;28;20208;-72
2022/09/14 08:41:50;;;;;;;3.10;1.70;;;;;;;;;;20504999;28;20236;-72
2022/09/14 08:51:51;;;;;;;2.20;1.30;;;19.90;99.90;;;;;;20502457;28;20217;-72
2022/09/14 09:01:53;;;;;;;5.77;1.60;;;;;;;;;;20501913;28;20238;-73
2022/09/14 09:11:55;;;;;;;2.10;1.40;;;;;;;;;;20501667;28;20220;-72
2022/09/14 09:22:02;;;;;;;3.87;1.70;;;20.60;99.90;;;;;;20500990;28;20289;-72
2022/09/14 09:32:06;;;;;;;2.37;1.67;;;22.20;99.90;;;;;;20500803;28;20230;-71
2022/09/14 09:42:31;;;;;;;3.37;1.70;;;;;;;;;;20498159;28;20264;-73
2022/09/14 09:52:33;;;;;;;5.10;1.87;;;;;;;;;;20498166;28;20241;-72
2022/09/14 10:02:35;;;;;;;2.40;1.60;;;;;;;;;;20497378;28;20277;-73
2022/09/14 10:12:38;;;;;;;2.33;1.38;;;;;;;;;;20496963;28;20243;-72
2022/09/14 10:22:40;;;;;;;2.13;1.23;;;22.40;99.90;;;;;;20496623;28;20240;-73
2022/09/14 10:33:02;;;;;;;2.20;1.42;;;;;;;;;;20496343;28;20280;-73
2022/09/14 10:43:10;;;;;;;2.13;1.35;;;;;;;;;;20495945;28;20282;-73
2022/09/14 10:53:48;;;;;;;4.68;1.73;;;23.10;99.90;;;;;;20494793;28;20243;-73
2022/09/14 11:04:16;;;;;;;1.98;1.35;;;;;;;;;;20495627;28;20228;-73
2022/09/14 11:14:27;;;;;;;3.78;1.33;;;;;;;;;;20493934;28;20221;-73
2022/09/14 11:24:39;;;;;;;1.08;0.77;;;;;;;;;;20499984;28;20278;-73
2022/09/14 11:34:47;;;;;;;1.38;0.90;;;22.80;99.90;;;;;;20508591;28;20642;-73
2022/09/14 11:44:52;;;;;;;4.47;1.00;;;;;;;;;;20508948;28;20274;-73
2022/09/14 11:54:54;;;;;;;1.77;0.90;;;;;;;;;;20506094;28;20231;-73
2022/09/14 12:05:05;;;;;;;1.38;0.77;;;;;;;;;;20506757;28;20240;-73
2022/09/14 12:15:15;;;;;;;1.60;0.75;;;;;;;;;;20506428;28;20292;-73
2022/09/14 12:25:19;;;;;;;2.00;0.65;;;;;;;;;;20504605;28;20221;-73
2022/09/14 12:35:39;;;;;;;0.77;0.52;;;;;;;;;;20504426;28;20223;-75
2022/09/14 12:45:51;;;;;;;0.93;0.60;;;;;;;;;;20503396;28;20215;-74
2022/09/14 12:55:56;;;;;;;1.60;0.90;;;;;;;;;;20501404;28;20216;-74
2022/09/14 13:05:57;;;;;;;1.02;0.73;;;;;;;;;;20497536;28;20195;-71
2022/09/14 13:16:02;;;;;;;1.13;0.70;;;22.30;99.90;;;;;;20498487;28;20239;-73
2022/09/14 13:26:21;;;;;;;2.40;1.50;;;;;;;;;;20496884;28;20262;-76
2022/09/14 13:36:35;;;;;;;2.80;0.55;;;22.20;99.90;;;;;;20499458;28;20234;-73
2022/09/14 13:46:40;;;;;;;1.08;0.50;;;;;;;;;;20496982;28;20247;-73
2022/09/14 13:56:42;;;;;;;0.35;0.32;;;;;;;;;;20502060;28;20246;-73
2022/09/14 14:06:44;;;;;;;1.27;0.50;;;;;;;;;;20493998;28;20285;-74
2022/09/14 14:17:05;;;;;;;1.50;0.65;;;;;;;;;;20494784;28;20277;-74
2022/09/14 14:27:22;;;;;;;1.63;0.40;;;;;;;;;;20492366;28;20781;-73
2022/09/14 14:37:24;;;;;;;1.30;0.40;;;;;;;;;;20491759;28;20710;-74
2022/09/14 14:47:26;;;;;;;1.15;0.57;;;;;;;;;;20489454;28;20769;-73
2022/09/14 14:57:28;;;;;;;0.57;0.40;;;;;;;;;;20495645;28;20222;-73
2022/09/14 15:07:30;;;;;;;0.80;0.33;;;;;;;;;;20506146;29;20226;-74
2022/09/14 15:17:32;;;;;;;0.40;0.30;;;;;;;;;;20521634;28;20265;-74
2022/09/14 15:27:34;;;;;;;1.43;0.30;;;;;;;;;;20499078;29;20346;-74
2022/09/14 15:37:36;;;;;;;0.80;0.40;;;;;;;;;;20447364;29;20231;-74
2022/09/14 15:47:41;;;;;;;1.00;0.30;;;21.00;99.90;;;;;;20470879;28;20290;-73
2022/09/14 15:57:42;;;;;;;0.70;0.30;;;;;;;;;;20498227;28;20721;-72
2022/09/14 16:07:45;;;;;;;0.90;0.40;;;;;;;;;;20507536;28;20222;-75
2022/09/14 16:17:50;;;;;;;0.47;0.30;;;;;;;;;;20489066;28;20286;-75
2022/09/14 16:27:53;;;;;;;0.33;0.23;;;;;;;;;;20477869;28;20335;-74
2022/09/14 16:37:54;;;;;;;0.87;0.50;;;;;;;;;;20432424;29;20251;-74
2022/09/14 16:47:56;;;;;;;0.30;0.30;;;;;;;;;;20453528;28;20234;-75
2022/09/14 16:57:57;;;;;;;1.40;0.70;;;;;;;;;;20474907;28;20647;-75
2022/09/14 17:07:59;;;;;;;0.90;0.68;;;;;;;;;;20455714;29;20246;-74
2022/09/14 17:18:01;;;;;;;2.00;0.50;;;;;;;;;;20438489;29;20668;-74
2022/09/14 17:28:03;;;;;;;0.63;0.57;;;;;;;;;;20426868;28;20587;-74
2022/09/14 17:38:05;;;;;;;1.07;0.60;;;;;;;;;;20500639;28;20242;-74
2022/09/14 17:48:07;;;;;;;1.20;0.70;;;;;;;;;;20489302;28;20271;-74
2022/09/14 17:58:08;;;;;;;2.67;0.60;;;21.30;99.90;;;;;;20482316;29;20252;-74
2022/09/14 18:08:10;;;;;;;1.00;0.67;;;;;;;;;;20507404;28;20207;-73
2022/09/14 18:18:12;;;;;;;0.73;0.43;;;;;;;;;;20503865;28;20240;-73
2022/09/14 18:28:14;;;;;;;1.43;0.47;;;;;;;;;;20491099;29;20610;-73
2022/09/14 18:38:15;;;;;;;1.43;0.50;;;;;;;;;;20488647;28;20254;-73
2022/09/14 18:48:17;;;;;;;2.13;0.57;;;;;;;;;;20490091;29;20290;-73
2022/09/14 18:58:20;;;;;;;0.63;0.40;;;;;;;;;;20487330;29;20219;-71
2022/09/14 19:08:22;;;;;;;1.20;0.50;;;;;;;;;;20478133;28;20606;-75
2022/09/14 19:18:24;;;;;;;2.30;0.40;;;;;;;;;;20485115;28;20695;-72
2022/09/14 19:28:26;;;;;;;0.50;0.40;;;;;;;;;;20484108;28;20246;-73
2022/09/14 19:38:28;;;;;;;1.10;0.50;;;;;;;;;;20482297;28;20276;-76
2022/09/14 19:48:31;;;;;;;0.85;0.43;;;21.20;99.90;;;;;;20497089;28;20305;-75
2022/09/14 20:22:40;;;;;;;2.28;0.60;;;;;;;;;;21287557;22;20968;-77
2022/09/14 20:32:42;;;;;;;0.80;0.60;;;;;;;;;;21139297;28;20674;-76
2022/09/14 20:42:44;;;;;;;0.80;0.40;;;;;;;;;;21201305;28;20266;-76
2022/09/14 20:52:46;;;;;;;0.77;0.50;;;;;;;;;;21200740;28;20230;-76
2022/09/14 21:02:51;;;;;;;0.50;0.50;;;20.50;99.90;;;;;;21219497;28;20258;-75
2022/09/14 21:12:53;;;;;;;0.80;0.30;;;;;;;;;;21201303;28;20229;-77
2022/09/14 21:22:55;;;;;;;0.40;0.40;;;;;;;;;;21167634;28;20295;-77
2022/09/14 21:32:57;;;;;;;1.67;0.40;;;;;;;;;;21149055;27;20258;-75
2022/09/14 21:42:59;;;;;;;0.37;0.30;;;;;;;;;;21170333;27;20243;-74
2022/09/14 21:53:00;;;;;;;0.50;0.30;;;;;;;;;;21161514;28;20267;-74
2022/09/14 22:03:02;;;;;;;0.77;0.40;;;;;;;;;;21125779;28;20211;-74
2022/09/14 22:13:03;;;;;;;0.77;0.40;;;;;;;;;;21158983;28;20216;-74
2022/09/14 22:23:06;;;;;;;1.40;0.40;;;;;;;;;;21158445;28;20332;-74
2022/09/14 22:33:07;;;;;;;0.60;0.40;;;;;;;;;;21139271;28;20213;-74
2022/09/14 22:43:09;;;;;;;1.63;0.40;;;;;;;;;;21122076;28;20217;-75
2022/09/14 22:53:11;;;;;;;0.50;0.37;;;;;;;;;;21157089;28;20440;-74
2022/09/14 23:03:14;;;;;;;1.47;0.40;;;20.20;99.90;;;;;;21155027;28;20224;-74
2022/09/14 23:13:16;;;;;;;1.07;0.50;;;;;;;;;;21153204;28;20632;-75
2022/09/14 23:23:18;;;;;;;0.93;0.50;;;;;;;;;;21154697;28;20272;-74
2022/09/14 23:33:20;;;;;;;1.53;0.60;;;;;;;;;;21152118;28;20765;-74
2022/09/14 23:43:21;;;;;;;0.50;0.40;;;;;;;;;;21100490;28;20234;-74
2022/09/14 23:53:23;;;;;;;1.87;0.50;;;;;;;;;;21134310;28;20245;-74
